Terminal Aerodrome Forecast
Issued by NWS Jackson, MS

Home | Current Version | Previous Version | Text Only | Print | Product List | Glossary On
Versions: 1 2 3 4 5 6 7 8 9 10 11 12 13 14 15 16
000
FTUS44 KJAN 010500
TAFGWO
TAF
KGWO 010538Z 0106/0206 16010KT P6SM BKN120
     FM011100 17014KT P6SM -SHRA OVC025
     FM011400 20016KT P6SM -SHRA OVC008
     FM020000 29015G25KT P6SM BKN030=

USA.gov is the U.S. government's official web portal to all federal, state and local government web resources and services.